sensor_id;sensor_type;location;lat;lon;timestamp;P1;durP1;ratioP1;P2;durP2;ratioP2
3543;SDS011;1786;52.870;9.578;2023-03-23T00:00:44;7.30;;;4.10;;
3543;SDS011;1786;52.870;9.578;2023-03-23T00:03:09;5.37;;;3.80;;
3543;SDS011;1786;52.870;9.578;2023-03-23T00:05:34;13.80;;;3.80;;
3543;SDS011;1786;52.870;9.578;2023-03-23T00:08:02;8.73;;;3.77;;
3543;SDS011;1786;52.870;9.578;2023-03-23T00:10:28;6.40;;;3.70;;
3543;SDS011;1786;52.870;9.578;2023-03-23T00:12:58;11.07;;;3.97;;
3543;SDS011;1786;52.870;9.578;2023-03-23T00:15:27;6.40;;;3.53;;
3543;SDS011;1786;52.870;9.578;2023-03-23T00:17:55;3.90;;;3.50;;
3543;SDS011;1786;52.870;9.578;2023-03-23T00:20:28;5.07;;;4.10;;
3543;SDS011;1786;52.870;9.578;2023-03-23T00:22:55;8.80;;;3.60;;
3543;SDS011;1786;52.870;9.578;2023-03-23T00:25:25;4.13;;;3.73;;
3543;SDS011;1786;52.870;9.578;2023-03-23T00:27:50;9.13;;;3.87;;
3543;SDS011;1786;52.870;9.578;2023-03-23T00:30:16;4.33;;;3.30;;
3543;SDS011;1786;52.870;9.578;2023-03-23T00:32:42;4.20;;;3.80;;
3543;SDS011;1786;52.870;9.578;2023-03-23T00:35:08;5.97;;;3.30;;
3543;SDS011;1786;52.870;9.578;2023-03-23T00:37:35;6.73;;;4.03;;
3543;SDS011;1786;52.870;9.578;2023-03-23T00:40:01;9.03;;;3.27;;
3543;SDS011;1786;52.870;9.578;2023-03-23T00:42:31;6.07;;;4.07;;
3543;SDS011;1786;52.870;9.578;2023-03-23T00:45:01;4.00;;;3.43;;
3543;SDS011;1786;52.870;9.578;2023-03-23T00:47:27;4.27;;;3.87;;
3543;SDS011;1786;52.870;9.578;2023-03-23T00:49:53;6.00;;;3.90;;
3543;SDS011;1786;52.870;9.578;2023-03-23T00:52:21;5.37;;;3.97;;
3543;SDS011;1786;52.870;9.578;2023-03-23T00:54:46;3.50;;;3.30;;
3543;SDS011;1786;52.870;9.578;2023-03-23T00:57:14;10.17;;;3.87;;
3543;SDS011;1786;52.870;9.578;2023-03-23T00:59:41;3.77;;;3.53;;
3543;SDS011;1786;52.870;9.578;2023-03-23T01:02:06;5.60;;;3.70;;
3543;SDS011;1786;52.870;9.578;2023-03-23T01:04:34;5.50;;;4.07;;
3543;SDS011;1786;52.870;9.578;2023-03-23T01:07:02;5.70;;;4.17;;
3543;SDS011;1786;52.870;9.578;2023-03-23T01:09:28;4.10;;;3.70;;
3543;SDS011;1786;52.870;9.578;2023-03-23T01:11:53;5.07;;;4.00;;
3543;SDS011;1786;52.870;9.578;2023-03-23T01:14:20;4.40;;;4.00;;
3543;SDS011;1786;52.870;9.578;2023-03-23T01:16:49;9.60;;;4.57;;
3543;SDS011;1786;52.870;9.578;2023-03-23T01:19:14;4.10;;;3.73;;
3543;SDS011;1786;52.870;9.578;2023-03-23T01:21:40;4.27;;;3.97;;
3543;SDS011;1786;52.870;9.578;2023-03-23T01:24:06;8.13;;;3.80;;
3543;SDS011;1786;52.870;9.578;2023-03-23T01:26:32;7.63;;;3.70;;
3543;SDS011;1786;52.870;9.578;2023-03-23T01:28:57;8.50;;;4.40;;
3543;SDS011;1786;52.870;9.578;2023-03-23T01:31:24;6.70;;;3.90;;
3543;SDS011;1786;52.870;9.578;2023-03-23T01:33:50;7.03;;;4.10;;
3543;SDS011;1786;52.870;9.578;2023-03-23T01:36:21;7.53;;;3.40;;
3543;SDS011;1786;52.870;9.578;2023-03-23T01:38:48;5.50;;;4.10;;
3543;SDS011;1786;52.870;9.578;2023-03-23T01:41:15;8.50;;;3.93;;
3543;SDS011;1786;52.870;9.578;2023-03-23T01:46:21;6.40;;;3.80;;
3543;SDS011;1786;52.870;9.578;2023-03-23T01:48:49;5.60;;;3.37;;
3543;SDS011;1786;52.870;9.578;2023-03-23T01:51:15;6.47;;;4.20;;
3543;SDS011;1786;52.870;9.578;2023-03-23T01:53:51;5.83;;;3.80;;
3543;SDS011;1786;52.870;9.578;2023-03-23T01:56:20;7.50;;;4.13;;
3543;SDS011;1786;52.870;9.578;2023-03-23T01:58:50;3.90;;;3.50;;
3543;SDS011;1786;52.870;9.578;2023-03-23T02:01:16;4.43;;;4.03;;
3543;SDS011;1786;52.870;9.578;2023-03-23T02:03:43;3.63;;;3.33;;
3543;SDS011;1786;52.870;9.578;2023-03-23T02:06:09;11.03;;;3.90;;
3543;SDS011;1786;52.870;9.578;2023-03-23T02:08:41;4.73;;;3.70;;
3543;SDS011;1786;52.870;9.578;2023-03-23T02:11:11;3.87;;;3.50;;
3543;SDS011;1786;52.870;9.578;2023-03-23T02:13:36;3.87;;;3.50;;
3543;SDS011;1786;52.870;9.578;2023-03-23T02:24:15;4.50;;;3.50;;
3543;SDS011;1786;52.870;9.578;2023-03-23T02:26:41;3.33;;;3.23;;
3543;SDS011;1786;52.870;9.578;2023-03-23T02:32:00;5.50;;;4.00;;
3543;SDS011;1786;52.870;9.578;2023-03-23T02:37:30;3.90;;;3.60;;
3543;SDS011;1786;52.870;9.578;2023-03-23T02:39:58;6.80;;;3.87;;
3543;SDS011;1786;52.870;9.578;2023-03-23T02:42:32;6.23;;;3.27;;
3543;SDS011;1786;52.870;9.578;2023-03-23T02:44:58;5.30;;;3.90;;
3543;SDS011;1786;52.870;9.578;2023-03-23T02:47:25;4.40;;;4.00;;
3543;SDS011;1786;52.870;9.578;2023-03-23T02:49:53;6.93;;;4.13;;
3543;SDS011;1786;52.870;9.578;2023-03-23T02:52:21;8.10;;;4.53;;
3543;SDS011;1786;52.870;9.578;2023-03-23T02:54:48;5.23;;;4.67;;
3543;SDS011;1786;52.870;9.578;2023-03-23T02:57:14;4.60;;;3.40;;
3543;SDS011;1786;52.870;9.578;2023-03-23T02:59:43;5.73;;;4.13;;
3543;SDS011;1786;52.870;9.578;2023-03-23T03:02:12;4.93;;;4.50;;
3543;SDS011;1786;52.870;9.578;2023-03-23T03:04:40;13.67;;;4.10;;
3543;SDS011;1786;52.870;9.578;2023-03-23T03:07:27;4.33;;;3.97;;
3543;SDS011;1786;52.870;9.578;2023-03-23T03:09:59;4.60;;;4.30;;
3543;SDS011;1786;52.870;9.578;2023-03-23T03:12:37;4.10;;;3.70;;
3543;SDS011;1786;52.870;9.578;2023-03-23T03:15:09;3.83;;;3.60;;
3543;SDS011;1786;52.870;9.578;2023-03-23T03:17:37;5.60;;;4.50;;
3543;SDS011;1786;52.870;9.578;2023-03-23T03:20:05;4.30;;;3.97;;
3543;SDS011;1786;52.870;9.578;2023-03-23T03:22:34;6.20;;;3.77;;
3543;SDS011;1786;52.870;9.578;2023-03-23T03:25:02;3.50;;;3.30;;
3543;SDS011;1786;52.870;9.578;2023-03-23T03:27:28;4.50;;;4.10;;
3543;SDS011;1786;52.870;9.578;2023-03-23T03:30:05;4.37;;;3.27;;
3543;SDS011;1786;52.870;9.578;2023-03-23T03:32:33;3.73;;;3.53;;
3543;SDS011;1786;52.870;9.578;2023-03-23T03:35:01;4.93;;;3.97;;
3543;SDS011;1786;52.870;9.578;2023-03-23T03:37:32;7.00;;;3.93;;
3543;SDS011;1786;52.870;9.578;2023-03-23T03:39:57;3.70;;;3.40;;
3543;SDS011;1786;52.870;9.578;2023-03-23T03:42:23;3.53;;;3.33;;
3543;SDS011;1786;52.870;9.578;2023-03-23T03:44:51;5.33;;;3.80;;
3543;SDS011;1786;52.870;9.578;2023-03-23T03:47:17;5.00;;;3.77;;
3543;SDS011;1786;52.870;9.578;2023-03-23T03:49:42;4.60;;;3.60;;
3543;SDS011;1786;52.870;9.578;2023-03-23T03:52:08;5.03;;;3.90;;
3543;SDS011;1786;52.870;9.578;2023-03-23T03:54:38;5.13;;;3.37;;
3543;SDS011;1786;52.870;9.578;2023-03-23T03:57:03;4.43;;;3.50;;
3543;SDS011;1786;52.870;9.578;2023-03-23T03:59:59;4.70;;;3.70;;
3543;SDS011;1786;52.870;9.578;2023-03-23T04:02:44;4.63;;;3.10;;
3543;SDS011;1786;52.870;9.578;2023-03-23T04:05:13;3.47;;;3.27;;
3543;SDS011;1786;52.870;9.578;2023-03-23T04:07:39;2.93;;;2.80;;
3543;SDS011;1786;52.870;9.578;2023-03-23T04:10:06;7.63;;;3.93;;
3543;SDS011;1786;52.870;9.578;2023-03-23T04:12:33;2.97;;;2.77;;
3543;SDS011;1786;52.870;9.578;2023-03-23T04:15:37;3.07;;;2.80;;
3543;SDS011;1786;52.870;9.578;2023-03-23T04:18:04;3.40;;;2.83;;
3543;SDS011;1786;52.870;9.578;2023-03-23T04:20:31;3.20;;;3.00;;
3543;SDS011;1786;52.870;9.578;2023-03-23T04:22:57;2.80;;;2.60;;
3543;SDS011;1786;52.870;9.578;2023-03-23T04:25:24;6.23;;;2.90;;
3543;SDS011;1786;52.870;9.578;2023-03-23T04:27:52;4.37;;;3.13;;
3543;SDS011;1786;52.870;9.578;2023-03-23T04:30:21;4.13;;;2.97;;
3543;SDS011;1786;52.870;9.578;2023-03-23T04:33:07;2.57;;;2.37;;
3543;SDS011;1786;52.870;9.578;2023-03-23T04:35:32;8.57;;;4.00;;
3543;SDS011;1786;52.870;9.578;2023-03-23T04:38:17;4.80;;;3.50;;
3543;SDS011;1786;52.870;9.578;2023-03-23T04:40:51;4.80;;;3.60;;
3543;SDS011;1786;52.870;9.578;2023-03-23T04:43:32;3.10;;;2.90;;
3543;SDS011;1786;52.870;9.578;2023-03-23T04:46:16;2.77;;;2.57;;
3543;SDS011;1786;52.870;9.578;2023-03-23T04:48:45;3.03;;;2.83;;
3543;SDS011;1786;52.870;9.578;2023-03-23T04:51:21;3.00;;;2.77;;
3543;SDS011;1786;52.870;9.578;2023-03-23T04:53:50;3.37;;;3.00;;
3543;SDS011;1786;52.870;9.578;2023-03-23T04:56:16;2.40;;;2.30;;
3543;SDS011;1786;52.870;9.578;2023-03-23T04:58:44;2.13;;;2.03;;
3543;SDS011;1786;52.870;9.578;2023-03-23T05:01:32;3.60;;;2.60;;
3543;SDS011;1786;52.870;9.578;2023-03-23T05:04:25;2.93;;;2.40;;
3543;SDS011;1786;52.870;9.578;2023-03-23T05:07:02;2.20;;;2.10;;
3543;SDS011;1786;52.870;9.578;2023-03-23T05:09:31;3.63;;;1.87;;
3543;SDS011;1786;52.870;9.578;2023-03-23T05:11:56;4.00;;;2.50;;
3543;SDS011;1786;52.870;9.578;2023-03-23T05:14:24;3.63;;;1.80;;
3543;SDS011;1786;52.870;9.578;2023-03-23T05:17:00;3.27;;;1.87;;
3543;SDS011;1786;52.870;9.578;2023-03-23T05:19:26;3.80;;;1.93;;
3543;SDS011;1786;52.870;9.578;2023-03-23T05:21:56;1.83;;;1.73;;
3543;SDS011;1786;52.870;9.578;2023-03-23T05:24:22;3.33;;;2.23;;
3543;SDS011;1786;52.870;9.578;2023-03-23T05:26:50;2.00;;;1.90;;
3543;SDS011;1786;52.870;9.578;2023-03-23T05:29:24;1.70;;;1.70;;
3543;SDS011;1786;52.870;9.578;2023-03-23T05:31:56;1.60;;;1.60;;
3543;SDS011;1786;52.870;9.578;2023-03-23T05:34:25;3.63;;;1.67;;
3543;SDS011;1786;52.870;9.578;2023-03-23T05:36:57;3.43;;;1.90;;
3543;SDS011;1786;52.870;9.578;2023-03-23T05:39:27;2.97;;;2.10;;
3543;SDS011;1786;52.870;9.578;2023-03-23T05:42:25;1.93;;;1.83;;
3543;SDS011;1786;52.870;9.578;2023-03-23T05:45:13;2.80;;;2.00;;
3543;SDS011;1786;52.870;9.578;2023-03-23T05:47:39;2.27;;;2.13;;
3543;SDS011;1786;52.870;9.578;2023-03-23T05:50:09;1.60;;;1.50;;
3543;SDS011;1786;52.870;9.578;2023-03-23T05:52:36;4.23;;;2.03;;
3543;SDS011;1786;52.870;9.578;2023-03-23T05:55:06;2.60;;;2.07;;
3543;SDS011;1786;52.870;9.578;2023-03-23T05:57:34;1.40;;;1.40;;
3543;SDS011;1786;52.870;9.578;2023-03-23T06:00:04;3.80;;;1.97;;
3543;SDS011;1786;52.870;9.578;2023-03-23T06:02:42;5.40;;;1.33;;
3543;SDS011;1786;52.870;9.578;2023-03-23T06:05:12;1.33;;;1.23;;
3543;SDS011;1786;52.870;9.578;2023-03-23T06:07:41;3.47;;;1.60;;
3543;SDS011;1786;52.870;9.578;2023-03-23T06:10:07;1.53;;;1.43;;
3543;SDS011;1786;52.870;9.578;2023-03-23T06:12:40;4.73;;;1.37;;
3543;SDS011;1786;52.870;9.578;2023-03-23T06:15:18;4.13;;;1.50;;
3543;SDS011;1786;52.870;9.578;2023-03-23T06:18:07;2.77;;;1.53;;
3543;SDS011;1786;52.870;9.578;2023-03-23T06:20:53;2.13;;;1.60;;
3543;SDS011;1786;52.870;9.578;2023-03-23T06:23:38;1.47;;;1.40;;
3543;SDS011;1786;52.870;9.578;2023-03-23T06:26:05;1.40;;;1.30;;
3543;SDS011;1786;52.870;9.578;2023-03-23T06:28:31;1.57;;;1.43;;
3543;SDS011;1786;52.870;9.578;2023-03-23T06:31:04;3.57;;;1.60;;
3543;SDS011;1786;52.870;9.578;2023-03-23T06:33:32;1.20;;;1.10;;
3543;SDS011;1786;52.870;9.578;2023-03-23T06:36:34;1.53;;;1.40;;
3543;SDS011;1786;52.870;9.578;2023-03-23T06:39:11;2.00;;;1.47;;
3543;SDS011;1786;52.870;9.578;2023-03-23T06:42:02;1.30;;;1.30;;
3543;SDS011;1786;52.870;9.578;2023-03-23T06:44:32;2.50;;;1.47;;
3543;SDS011;1786;52.870;9.578;2023-03-23T06:46:58;1.60;;;1.47;;
3543;SDS011;1786;52.870;9.578;2023-03-23T06:49:26;8.13;;;1.77;;
3543;SDS011;1786;52.870;9.578;2023-03-23T06:51:59;1.53;;;1.50;;
3543;SDS011;1786;52.870;9.578;2023-03-23T06:54:27;1.47;;;1.20;;
3543;SDS011;1786;52.870;9.578;2023-03-23T06:56:53;1.43;;;1.43;;
3543;SDS011;1786;52.870;9.578;2023-03-23T06:59:18;1.40;;;1.30;;
3543;SDS011;1786;52.870;9.578;2023-03-23T07:01:45;1.50;;;1.40;;
3543;SDS011;1786;52.870;9.578;2023-03-23T07:04:12;2.23;;;1.67;;
3543;SDS011;1786;52.870;9.578;2023-03-23T07:06:48;1.40;;;1.30;;
3543;SDS011;1786;52.870;9.578;2023-03-23T07:09:14;1.33;;;1.20;;
3543;SDS011;1786;52.870;9.578;2023-03-23T07:11:40;1.30;;;1.30;;
3543;SDS011;1786;52.870;9.578;2023-03-23T07:14:14;1.50;;;1.40;;
3543;SDS011;1786;52.870;9.578;2023-03-23T07:16:40;1.30;;;1.30;;
3543;SDS011;1786;52.870;9.578;2023-03-23T07:19:06;1.80;;;1.53;;
3543;SDS011;1786;52.870;9.578;2023-03-23T07:21:31;1.40;;;1.27;;
3543;SDS011;1786;52.870;9.578;2023-03-23T07:23:56;1.70;;;1.60;;
3543;SDS011;1786;52.870;9.578;2023-03-23T07:26:36;1.50;;;1.40;;
3543;SDS011;1786;52.870;9.578;2023-03-23T07:29:03;1.60;;;1.50;;
3543;SDS011;1786;52.870;9.578;2023-03-23T07:31:34;1.40;;;1.40;;
3543;SDS011;1786;52.870;9.578;2023-03-23T07:34:00;2.90;;;1.83;;
3543;SDS011;1786;52.870;9.578;2023-03-23T07:36:37;1.50;;;1.50;;
3543;SDS011;1786;52.870;9.578;2023-03-23T07:39:04;3.40;;;1.60;;
3543;SDS011;1786;52.870;9.578;2023-03-23T07:41:33;1.60;;;1.50;;
3543;SDS011;1786;52.870;9.578;2023-03-23T07:44:03;2.50;;;2.03;;
3543;SDS011;1786;52.870;9.578;2023-03-23T07:46:35;11.43;;;1.50;;
3543;SDS011;1786;52.870;9.578;2023-03-23T07:49:12;2.00;;;1.83;;
3543;SDS011;1786;52.870;9.578;2023-03-23T07:51:43;1.53;;;1.43;;
3543;SDS011;1786;52.870;9.578;2023-03-23T07:54:12;4.53;;;1.40;;
3543;SDS011;1786;52.870;9.578;2023-03-23T07:56:50;1.67;;;1.57;;
3543;SDS011;1786;52.870;9.578;2023-03-23T07:59:21;2.20;;;1.90;;
3543;SDS011;1786;52.870;9.578;2023-03-23T08:01:46;1.37;;;1.37;;
3543;SDS011;1786;52.870;9.578;2023-03-23T08:04:41;2.47;;;1.90;;
3543;SDS011;1786;52.870;9.578;2023-03-23T08:07:24;2.40;;;2.10;;
3543;SDS011;1786;52.870;9.578;2023-03-23T08:09:49;1.63;;;1.43;;
3543;SDS011;1786;52.870;9.578;2023-03-23T08:12:29;2.63;;;2.10;;
3543;SDS011;1786;52.870;9.578;2023-03-23T08:15:09;2.40;;;2.20;;
3543;SDS011;1786;52.870;9.578;2023-03-23T08:17:56;5.47;;;1.70;;
3543;SDS011;1786;52.870;9.578;2023-03-23T08:20:45;2.60;;;2.00;;
3543;SDS011;1786;52.870;9.578;2023-03-23T08:23:24;3.03;;;1.77;;
3543;SDS011;1786;52.870;9.578;2023-03-23T08:26:09;2.33;;;2.10;;
3543;SDS011;1786;52.870;9.578;2023-03-23T08:28:51;2.97;;;2.07;;
3543;SDS011;1786;52.870;9.578;2023-03-23T08:31:20;4.93;;;2.40;;
3543;SDS011;1786;52.870;9.578;2023-03-23T08:33:53;2.97;;;1.50;;
3543;SDS011;1786;52.870;9.578;2023-03-23T08:36:24;4.67;;;2.70;;
3543;SDS011;1786;52.870;9.578;2023-03-23T08:39:00;2.50;;;1.87;;
3543;SDS011;1786;52.870;9.578;2023-03-23T08:41:26;3.00;;;1.40;;
3543;SDS011;1786;52.870;9.578;2023-03-23T08:44:10;3.87;;;1.73;;
3543;SDS011;1786;52.870;9.578;2023-03-23T08:46:54;6.03;;;1.97;;
3543;SDS011;1786;52.870;9.578;2023-03-23T08:49:40;2.77;;;1.20;;
3543;SDS011;1786;52.870;9.578;2023-03-23T08:52:14;3.07;;;1.70;;
3543;SDS011;1786;52.870;9.578;2023-03-23T08:54:54;3.10;;;1.50;;
3543;SDS011;1786;52.870;9.578;2023-03-23T08:57:52;1.23;;;1.13;;
3543;SDS011;1786;52.870;9.578;2023-03-23T09:00:38;6.23;;;1.40;;
3543;SDS011;1786;52.870;9.578;2023-03-23T09:03:17;1.83;;;1.20;;
3543;SDS011;1786;52.870;9.578;2023-03-23T09:05:59;2.97;;;1.60;;
3543;SDS011;1786;52.870;9.578;2023-03-23T09:08:35;4.33;;;1.00;;
3543;SDS011;1786;52.870;9.578;2023-03-23T09:11:04;2.50;;;1.40;;
3543;SDS011;1786;52.870;9.578;2023-03-23T09:13:30;3.30;;;1.57;;
3543;SDS011;1786;52.870;9.578;2023-03-23T09:15:56;2.03;;;1.27;;
3543;SDS011;1786;52.870;9.578;2023-03-23T09:18:22;8.03;;;1.50;;
3543;SDS011;1786;52.870;9.578;2023-03-23T09:20:51;10.50;;;1.40;;
3543;SDS011;1786;52.870;9.578;2023-03-23T09:23:17;5.97;;;1.60;;
3543;SDS011;1786;52.870;9.578;2023-03-23T09:25:43;4.57;;;1.33;;
3543;SDS011;1786;52.870;9.578;2023-03-23T09:28:09;7.53;;;1.93;;
3543;SDS011;1786;52.870;9.578;2023-03-23T09:30:35;3.50;;;1.30;;
3543;SDS011;1786;52.870;9.578;2023-03-23T09:33:02;7.40;;;1.53;;
3543;SDS011;1786;52.870;9.578;2023-03-23T09:35:28;4.83;;;2.10;;
3543;SDS011;1786;52.870;9.578;2023-03-23T09:37:54;1.37;;;1.00;;
3543;SDS011;1786;52.870;9.578;2023-03-23T09:40:21;3.27;;;1.40;;
3543;SDS011;1786;52.870;9.578;2023-03-23T09:45:34;4.10;;;1.27;;
3543;SDS011;1786;52.870;9.578;2023-03-23T09:50:36;1.43;;;1.23;;
3543;SDS011;1786;52.870;9.578;2023-03-23T09:53:16;10.90;;;5.27;;
3543;SDS011;1786;52.870;9.578;2023-03-23T09:55:43;4.50;;;3.33;;
3543;SDS011;1786;52.870;9.578;2023-03-23T10:00:44;2.60;;;2.17;;
3543;SDS011;1786;52.870;9.578;2023-03-23T10:03:15;7.70;;;1.40;;
3543;SDS011;1786;52.870;9.578;2023-03-23T10:05:42;4.63;;;1.40;;
3543;SDS011;1786;52.870;9.578;2023-03-23T10:08:14;4.30;;;1.60;;
3543;SDS011;1786;52.870;9.578;2023-03-23T10:16:20;5.60;;;1.73;;
3543;SDS011;1786;52.870;9.578;2023-03-23T10:21:31;5.13;;;2.80;;
3543;SDS011;1786;52.870;9.578;2023-03-23T10:24:01;11.00;;;4.30;;
3543;SDS011;1786;52.870;9.578;2023-03-23T10:28:57;4.90;;;1.93;;
3543;SDS011;1786;52.870;9.578;2023-03-23T10:31:26;9.23;;;1.70;;
3543;SDS011;1786;52.870;9.578;2023-03-23T10:33:54;3.70;;;1.50;;
3543;SDS011;1786;52.870;9.578;2023-03-23T10:36:26;2.80;;;1.43;;
3543;SDS011;1786;52.870;9.578;2023-03-23T10:38:57;4.37;;;1.47;;
3543;SDS011;1786;52.870;9.578;2023-03-23T10:41:23;2.30;;;1.10;;
3543;SDS011;1786;52.870;9.578;2023-03-23T10:43:48;3.20;;;1.40;;
3543;SDS011;1786;52.870;9.578;2023-03-23T10:48:40;5.30;;;1.83;;
3543;SDS011;1786;52.870;9.578;2023-03-23T10:51:11;3.63;;;1.77;;
3543;SDS011;1786;52.870;9.578;2023-03-23T10:53:42;4.67;;;1.73;;
3543;SDS011;1786;52.870;9.578;2023-03-23T11:01:38;1.67;;;1.10;;
3543;SDS011;1786;52.870;9.578;2023-03-23T11:04:03;2.37;;;1.00;;
3543;SDS011;1786;52.870;9.578;2023-03-23T11:06:35;3.80;;;1.20;;
3543;SDS011;1786;52.870;9.578;2023-03-23T11:09:12;6.23;;;1.43;;
3543;SDS011;1786;52.870;9.578;2023-03-23T11:11:39;3.97;;;1.37;;
3543;SDS011;1786;52.870;9.578;2023-03-23T11:16:43;2.93;;;1.40;;
3543;SDS011;1786;52.870;9.578;2023-03-23T11:19:16;1.83;;;1.47;;
3543;SDS011;1786;52.870;9.578;2023-03-23T11:21:52;2.90;;;1.47;;
3543;SDS011;1786;52.870;9.578;2023-03-23T11:24:21;1.77;;;1.20;;
3543;SDS011;1786;52.870;9.578;2023-03-23T11:26:47;3.90;;;2.37;;
3543;SDS011;1786;52.870;9.578;2023-03-23T11:29:14;1.70;;;1.50;;
3543;SDS011;1786;52.870;9.578;2023-03-23T11:31:42;6.83;;;1.80;;
3543;SDS011;1786;52.870;9.578;2023-03-23T11:34:18;3.80;;;1.33;;
3543;SDS011;1786;52.870;9.578;2023-03-23T11:37:03;4.07;;;2.60;;
3543;SDS011;1786;52.870;9.578;2023-03-23T11:39:32;5.77;;;1.97;;
3543;SDS011;1786;52.870;9.578;2023-03-23T11:41:59;4.93;;;1.97;;
3543;SDS011;1786;52.870;9.578;2023-03-23T11:44:31;3.70;;;1.47;;
3543;SDS011;1786;52.870;9.578;2023-03-23T11:47:01;3.80;;;1.53;;
3543;SDS011;1786;52.870;9.578;2023-03-23T11:49:40;1.90;;;1.50;;
3543;SDS011;1786;52.870;9.578;2023-03-23T11:52:13;2.20;;;1.50;;
3543;SDS011;1786;52.870;9.578;2023-03-23T11:54:43;8.80;;;2.83;;
3543;SDS011;1786;52.870;9.578;2023-03-23T11:57:12;6.50;;;1.60;;
3543;SDS011;1786;52.870;9.578;2023-03-23T11:59:39;5.07;;;1.67;;
3543;SDS011;1786;52.870;9.578;2023-03-23T12:07:36;3.47;;;1.50;;
3543;SDS011;1786;52.870;9.578;2023-03-23T12:12:45;2.20;;;1.90;;
3543;SDS011;1786;52.870;9.578;2023-03-23T12:17:51;5.33;;;1.60;;
3543;SDS011;1786;52.870;9.578;2023-03-23T12:25:52;1.60;;;1.50;;
3543;SDS011;1786;52.870;9.578;2023-03-23T12:31:15;3.40;;;1.93;;
3543;SDS011;1786;52.870;9.578;2023-03-23T12:36:24;1.43;;;1.27;;
3543;SDS011;1786;52.870;9.578;2023-03-23T12:39:08;2.00;;;1.30;;
3543;SDS011;1786;52.870;9.578;2023-03-23T12:41:41;3.63;;;1.73;;
3543;SDS011;1786;52.870;9.578;2023-03-23T12:44:09;4.23;;;1.80;;
3543;SDS011;1786;52.870;9.578;2023-03-23T12:49:35;1.23;;;1.23;;
3543;SDS011;1786;52.870;9.578;2023-03-23T12:52:10;1.73;;;1.30;;
3543;SDS011;1786;52.870;9.578;2023-03-23T12:54:39;2.77;;;1.30;;
3543;SDS011;1786;52.870;9.578;2023-03-23T12:57:11;3.00;;;1.40;;
3543;SDS011;1786;52.870;9.578;2023-03-23T13:00:02;2.20;;;1.93;;
3543;SDS011;1786;52.870;9.578;2023-03-23T13:02:44;2.83;;;1.40;;
3543;SDS011;1786;52.870;9.578;2023-03-23T13:07:48;1.30;;;1.20;;
3543;SDS011;1786;52.870;9.578;2023-03-23T13:10:19;0.90;;;0.90;;
3543;SDS011;1786;52.870;9.578;2023-03-23T13:12:46;1.10;;;1.03;;
3543;SDS011;1786;52.870;9.578;2023-03-23T13:18:07;1.40;;;1.30;;
3543;SDS011;1786;52.870;9.578;2023-03-23T13:25:46;0.80;;;0.80;;
3543;SDS011;1786;52.870;9.578;2023-03-23T13:28:17;1.00;;;1.00;;
3543;SDS011;1786;52.870;9.578;2023-03-23T13:33:33;3.50;;;1.53;;
3543;SDS011;1786;52.870;9.578;2023-03-23T13:36:08;2.37;;;1.17;;
3543;SDS011;1786;52.870;9.578;2023-03-23T13:38:34;3.80;;;1.20;;
3543;SDS011;1786;52.870;9.578;2023-03-23T13:41:11;1.13;;;0.90;;
3543;SDS011;1786;52.870;9.578;2023-03-23T13:43:37;2.30;;;1.30;;
3543;SDS011;1786;52.870;9.578;2023-03-23T13:46:23;3.50;;;1.40;;
3543;SDS011;1786;52.870;9.578;2023-03-23T13:48:50;8.57;;;1.20;;
3543;SDS011;1786;52.870;9.578;2023-03-23T13:51:32;2.50;;;1.00;;
3543;SDS011;1786;52.870;9.578;2023-03-23T13:54:05;2.50;;;1.23;;
3543;SDS011;1786;52.870;9.578;2023-03-23T13:56:40;2.10;;;1.10;;
3543;SDS011;1786;52.870;9.578;2023-03-23T13:59:14;2.80;;;1.10;;
3543;SDS011;1786;52.870;9.578;2023-03-23T14:01:40;2.37;;;0.93;;
3543;SDS011;1786;52.870;9.578;2023-03-23T14:04:09;3.00;;;1.30;;
3543;SDS011;1786;52.870;9.578;2023-03-23T14:06:35;3.80;;;1.27;;
3543;SDS011;1786;52.870;9.578;2023-03-23T14:09:11;6.97;;;1.10;;
3543;SDS011;1786;52.870;9.578;2023-03-23T14:11:48;2.50;;;1.23;;
3543;SDS011;1786;52.870;9.578;2023-03-23T14:14:18;4.10;;;1.00;;
3543;SDS011;1786;52.870;9.578;2023-03-23T14:16:48;3.83;;;1.20;;
3543;SDS011;1786;52.870;9.578;2023-03-23T14:21:48;6.63;;;1.10;;
3543;SDS011;1786;52.870;9.578;2023-03-23T14:24:19;1.80;;;1.03;;
3543;SDS011;1786;52.870;9.578;2023-03-23T14:26:45;6.57;;;1.10;;
3543;SDS011;1786;52.870;9.578;2023-03-23T14:29:11;2.73;;;0.90;;
3543;SDS011;1786;52.870;9.578;2023-03-23T14:31:37;3.33;;;2.83;;
3543;SDS011;1786;52.870;9.578;2023-03-23T14:34:04;1.23;;;0.83;;
3543;SDS011;1786;52.870;9.578;2023-03-23T14:36:36;3.50;;;2.10;;
3543;SDS011;1786;52.870;9.578;2023-03-23T14:41:36;3.60;;;1.20;;
3543;SDS011;1786;52.870;9.578;2023-03-23T14:44:02;2.77;;;1.27;;
3543;SDS011;1786;52.870;9.578;2023-03-23T14:46:29;2.03;;;1.00;;
3543;SDS011;1786;52.870;9.578;2023-03-23T14:48:55;2.60;;;1.10;;
3543;SDS011;1786;52.870;9.578;2023-03-23T14:51:21;2.80;;;0.87;;
3543;SDS011;1786;52.870;9.578;2023-03-23T14:53:47;3.37;;;0.80;;
3543;SDS011;1786;52.870;9.578;2023-03-23T14:56:19;1.50;;;1.10;;
3543;SDS011;1786;52.870;9.578;2023-03-23T14:58:48;0.83;;;0.83;;
3543;SDS011;1786;52.870;9.578;2023-03-23T15:01:18;1.17;;;0.80;;
3543;SDS011;1786;52.870;9.578;2023-03-23T15:03:46;5.07;;;1.27;;
3543;SDS011;1786;52.870;9.578;2023-03-23T15:06:16;2.90;;;1.37;;
3543;SDS011;1786;52.870;9.578;2023-03-23T15:08:42;2.40;;;1.10;;
3543;SDS011;1786;52.870;9.578;2023-03-23T15:13:44;3.30;;;1.10;;
3543;SDS011;1786;52.870;9.578;2023-03-23T15:16:17;4.43;;;1.13;;
3543;SDS011;1786;52.870;9.578;2023-03-23T15:18:46;2.97;;;1.10;;
3543;SDS011;1786;52.870;9.578;2023-03-23T15:23:51;1.30;;;0.73;;
3543;SDS011;1786;52.870;9.578;2023-03-23T15:26:21;2.77;;;1.23;;
3543;SDS011;1786;52.870;9.578;2023-03-23T15:28:47;1.13;;;0.90;;
3543;SDS011;1786;52.870;9.578;2023-03-23T15:31:13;1.23;;;1.13;;
3543;SDS011;1786;52.870;9.578;2023-03-23T15:33:39;2.37;;;1.03;;
3543;SDS011;1786;52.870;9.578;2023-03-23T15:36:06;1.60;;;1.00;;
3543;SDS011;1786;52.870;9.578;2023-03-23T15:38:32;2.20;;;1.40;;
3543;SDS011;1786;52.870;9.578;2023-03-23T15:41:00;1.23;;;1.13;;
3543;SDS011;1786;52.870;9.578;2023-03-23T15:48:29;1.40;;;1.10;;
3543;SDS011;1786;52.870;9.578;2023-03-23T15:50:54;3.03;;;1.17;;
3543;SDS011;1786;52.870;9.578;2023-03-23T15:55:45;3.10;;;1.10;;
3543;SDS011;1786;52.870;9.578;2023-03-23T15:58:12;1.80;;;1.17;;
3543;SDS011;1786;52.870;9.578;2023-03-23T16:00:39;2.00;;;1.13;;
3543;SDS011;1786;52.870;9.578;2023-03-23T16:03:07;2.53;;;1.33;;
3543;SDS011;1786;52.870;9.578;2023-03-23T16:05:34;3.27;;;1.27;;
3543;SDS011;1786;52.870;9.578;2023-03-23T16:08:01;4.77;;;1.10;;
3543;SDS011;1786;52.870;9.578;2023-03-23T16:10:27;1.60;;;1.50;;
3543;SDS011;1786;52.870;9.578;2023-03-23T16:12:54;4.30;;;1.30;;
3543;SDS011;1786;52.870;9.578;2023-03-23T16:15:22;3.63;;;1.23;;
3543;SDS011;1786;52.870;9.578;2023-03-23T16:17:49;4.13;;;2.37;;
3543;SDS011;1786;52.870;9.578;2023-03-23T16:20:17;4.33;;;2.63;;
3543;SDS011;1786;52.870;9.578;2023-03-23T16:22:45;1.57;;;1.03;;
3543;SDS011;1786;52.870;9.578;2023-03-23T16:25:12;1.43;;;1.10;;
3543;SDS011;1786;52.870;9.578;2023-03-23T16:27:39;1.30;;;1.20;;
3543;SDS011;1786;52.870;9.578;2023-03-23T16:32:42;2.17;;;1.80;;
3543;SDS011;1786;52.870;9.578;2023-03-23T16:35:09;3.80;;;1.77;;
3543;SDS011;1786;52.870;9.578;2023-03-23T16:37:36;1.20;;;1.10;;
3543;SDS011;1786;52.870;9.578;2023-03-23T16:40:03;4.73;;;1.67;;
3543;SDS011;1786;52.870;9.578;2023-03-23T16:42:29;2.00;;;1.07;;
3543;SDS011;1786;52.870;9.578;2023-03-23T16:44:56;1.37;;;1.20;;
3543;SDS011;1786;52.870;9.578;2023-03-23T16:47:23;1.20;;;1.10;;
3543;SDS011;1786;52.870;9.578;2023-03-23T16:49:51;1.83;;;1.20;;
3543;SDS011;1786;52.870;9.578;2023-03-23T16:52:17;3.33;;;1.47;;
3543;SDS011;1786;52.870;9.578;2023-03-23T16:54:44;8.17;;;1.40;;
3543;SDS011;1786;52.870;9.578;2023-03-23T16:57:11;2.13;;;1.20;;
3543;SDS011;1786;52.870;9.578;2023-03-23T16:59:37;1.40;;;1.17;;
3543;SDS011;1786;52.870;9.578;2023-03-23T17:02:04;1.77;;;1.47;;
3543;SDS011;1786;52.870;9.578;2023-03-23T17:04:31;1.60;;;1.50;;
3543;SDS011;1786;52.870;9.578;2023-03-23T17:06:58;2.53;;;1.60;;
3543;SDS011;1786;52.870;9.578;2023-03-23T17:09:26;2.10;;;1.50;;
3543;SDS011;1786;52.870;9.578;2023-03-23T17:11:52;2.00;;;1.67;;
3543;SDS011;1786;52.870;9.578;2023-03-23T17:14:19;4.00;;;1.63;;
3543;SDS011;1786;52.870;9.578;2023-03-23T17:16:46;2.30;;;1.60;;
3543;SDS011;1786;52.870;9.578;2023-03-23T17:19:12;1.60;;;1.60;;